Aberdeen, California
Current Conditions -  °F | °C
As of 5:56 PM on Sunday 25 Jan 2015 (Local Time) from KBIH Reporting Station
Clear Clear  
Wind Chill: 61°   Ceiling: Unl
Heat Index: 61°   Visibility: 10mi
Dew Point: 18°   Wind: 0mph
Humidity: 19%   Direction: NA
Pressure: 30.19"   Gusts: NA
Location:  36.9237°N, 117.897°W
Report Text: KBIH 260156Z AUTO 00000KT 10SM CLR 16/M08 A3019 RMK AO2 SLP212 T01611078
Loading
Personal Weather Stations






























Interactive Weather Map New forecast layout! Learn more

10-Day Weather Forecast

Advertisements
Track Severe Weather on mobile